createdAt,value
2022-10-09T00:01:09.860Z,16.34
2022-10-09T00:03:38.489Z,16.37
2022-10-09T00:06:06.598Z,16.36
2022-10-09T00:08:34.817Z,16.33
2022-10-09T00:11:08.356Z,16.33
2022-10-09T00:13:35.390Z,16.32
2022-10-09T00:16:04.986Z,16.29
2022-10-09T00:18:32.160Z,16.29
2022-10-09T00:20:59.094Z,16.30
2022-10-09T00:23:26.217Z,16.28
2022-10-09T00:25:55.778Z,16.26
2022-10-09T00:28:24.152Z,16.24
2022-10-09T00:30:51.729Z,16.22
2022-10-09T00:33:19.882Z,16.22
2022-10-09T00:35:47.327Z,16.22
2022-10-09T00:38:14.213Z,16.22
2022-10-09T00:40:41.157Z,16.19
2022-10-09T00:43:16.143Z,16.20
2022-10-09T00:45:54.084Z,16.14
2022-10-09T00:48:22.880Z,16.17
2022-10-09T00:50:55.031Z,16.12
2022-10-09T00:53:24.347Z,16.14
2022-10-09T00:55:51.558Z,16.12
2022-10-09T00:58:19.002Z,16.11
2022-10-09T01:00:46.170Z,16.09
2022-10-09T01:03:13.016Z,16.08
2022-10-09T01:05:54.649Z,16.08
2022-10-09T01:08:30.035Z,16.06
2022-10-09T01:11:22.094Z,16.04
2022-10-09T01:14:00.868Z,16.04
2022-10-09T01:16:32.918Z,16.01
2022-10-09T01:19:30.790Z,16.01
2022-10-09T01:22:26.635Z,16.02
2022-10-09T01:25:08.317Z,16.02
2022-10-09T01:27:36.795Z,16.01
2022-10-09T01:30:08.783Z,15.99
2022-10-09T01:32:43.333Z,16.02
2022-10-09T01:35:13.001Z,16.01
2022-10-09T01:37:42.499Z,15.99
2022-10-09T01:40:10.686Z,15.99
2022-10-09T01:42:38.096Z,15.98
2022-10-09T01:45:05.298Z,15.98
2022-10-09T01:47:32.203Z,15.96
2022-10-09T01:50:20.428Z,15.94
2022-10-09T01:52:57.160Z,15.94
2022-10-09T01:55:30.147Z,15.92
2022-10-09T01:58:18.465Z,15.93
2022-10-09T02:00:58.727Z,15.89
2022-10-09T02:03:28.091Z,15.91
2022-10-09T02:05:56.622Z,15.89
2022-10-09T02:08:24.718Z,15.89
2022-10-09T02:10:55.880Z,15.85
2022-10-09T02:13:23.156Z,15.86
2022-10-09T02:15:52.244Z,15.89
2022-10-09T02:18:37.484Z,15.88
2022-10-09T02:21:14.650Z,15.88
2022-10-09T02:23:43.269Z,15.83
2022-10-09T02:26:10.697Z,15.86
2022-10-09T02:28:40.436Z,15.85
2022-10-09T02:31:28.997Z,15.85
2022-10-09T02:34:01.445Z,15.86
2022-10-09T02:36:29.409Z,15.83
2022-10-09T02:38:57.309Z,15.82
2022-10-09T02:41:25.140Z,15.84
2022-10-09T02:43:52.461Z,15.83
2022-10-09T02:46:19.502Z,15.82
2022-10-09T02:48:46.528Z,15.82
2022-10-09T02:51:13.748Z,15.80
2022-10-09T02:53:40.706Z,15.81
2022-10-09T02:56:07.558Z,15.80
2022-10-09T02:58:35.452Z,15.79
2022-10-09T03:01:02.663Z,15.78
2022-10-09T03:03:29.458Z,15.78
2022-10-09T03:06:12.475Z,15.75
2022-10-09T03:08:41.687Z,15.75
2022-10-09T03:11:08.981Z,15.75
2022-10-09T03:13:35.920Z,15.73
2022-10-09T03:16:07.872Z,15.74
2022-10-09T03:18:35.918Z,15.71
2022-10-09T03:21:09.421Z,15.70
2022-10-09T03:23:36.564Z,15.69
2022-10-09T03:26:09.476Z,15.69
2022-10-09T03:28:38.528Z,15.67
2022-10-09T03:31:05.595Z,15.68
2022-10-09T03:33:33.420Z,15.68
2022-10-09T03:36:00.249Z,15.65
2022-10-09T03:38:27.090Z,15.66
2022-10-09T03:40:54.032Z,15.65
2022-10-09T03:43:21.214Z,15.66
2022-10-09T03:45:48.035Z,15.67
2022-10-09T03:48:15.254Z,15.66
2022-10-09T03:50:42.548Z,15.65
2022-10-09T03:53:11.622Z,15.65
2022-10-09T03:55:39.204Z,15.65
2022-10-09T03:58:06.645Z,15.64
2022-10-09T04:00:33.746Z,15.62
2022-10-09T04:03:00.756Z,15.60
2022-10-09T04:05:27.643Z,15.58
2022-10-09T04:07:54.505Z,15.57
2022-10-09T04:10:21.298Z,15.57
2022-10-09T04:12:48.395Z,15.56
2022-10-09T04:15:15.366Z,15.56
2022-10-09T04:17:42.157Z,15.55
2022-10-09T04:20:09.343Z,15.53
2022-10-09T04:22:36.193Z,15.53
2022-10-09T04:25:03.019Z,15.52
2022-10-09T04:27:29.938Z,15.50
2022-10-09T04:29:56.832Z,15.50
2022-10-09T04:32:23.686Z,15.49
2022-10-09T04:34:50.539Z,15.48
2022-10-09T04:37:17.483Z,15.48
2022-10-09T04:39:44.291Z,15.49
2022-10-09T04:42:11.197Z,15.47
2022-10-09T04:44:38.018Z,15.46
2022-10-09T04:47:07.088Z,15.44
2022-10-09T04:49:37.393Z,15.46
2022-10-09T04:52:04.252Z,15.45
2022-10-09T04:54:31.132Z,15.44
2022-10-09T04:56:57.955Z,15.45
2022-10-09T04:59:24.809Z,15.44
2022-10-09T05:01:51.724Z,15.44
2022-10-09T05:04:18.559Z,15.43
2022-10-09T05:06:45.395Z,15.43
2022-10-09T05:09:12.255Z,15.45
2022-10-09T05:11:42.439Z,15.44
2022-10-09T05:14:10.070Z,15.44
2022-10-09T05:17:00.899Z,15.44
2022-10-09T05:19:23.828Z,15.43
2022-10-09T05:21:50.683Z,15.44
2022-10-09T05:24:17.596Z,15.43
2022-10-09T05:26:44.379Z,15.44
2022-10-09T05:29:11.212Z,15.42
2022-10-09T05:31:38.254Z,15.42
2022-10-09T05:34:05.477Z,15.42
2022-10-09T05:36:32.507Z,15.42
2022-10-09T05:39:01.369Z,15.43
2022-10-09T05:41:29.884Z,15.43
2022-10-09T05:44:01.336Z,15.45
2022-10-09T05:46:30.035Z,15.46
2022-10-09T05:49:02.262Z,15.46
2022-10-09T05:51:34.283Z,15.47
2022-10-09T05:54:04.372Z,15.48
2022-10-09T05:56:37.332Z,15.47
2022-10-09T05:59:08.437Z,15.47
2022-10-09T06:01:36.402Z,15.46
2022-10-09T06:04:04.619Z,15.47
2022-10-09T06:06:33.796Z,15.47
2022-10-09T06:09:00.627Z,15.47
2022-10-09T06:11:31.836Z,15.47
2022-10-09T06:14:00.448Z,15.47
2022-10-09T06:16:33.308Z,15.45
2022-10-09T06:19:00.963Z,15.46
2022-10-09T06:21:28.374Z,15.44
2022-10-09T06:24:00.478Z,15.44
2022-10-09T06:26:32.013Z,15.42
2022-10-09T06:29:01.080Z,15.43
2022-10-09T06:31:33.206Z,15.44
2022-10-09T06:34:01.816Z,15.45
2022-10-09T06:36:31.255Z,15.46
2022-10-09T06:39:00.775Z,15.46
2022-10-09T06:41:29.426Z,15.46
2022-10-09T06:43:58.931Z,15.46
2022-10-09T06:46:32.491Z,15.45
2022-10-09T06:49:00.932Z,15.46
2022-10-09T06:51:28.711Z,15.46
2022-10-09T06:53:58.754Z,15.45
2022-10-09T06:56:27.498Z,15.47
2022-10-09T06:58:54.502Z,15.46
2022-10-09T07:01:32.954Z,15.45
2022-10-09T07:04:07.317Z,15.45
2022-10-09T07:06:38.100Z,15.45
2022-10-09T07:09:07.701Z,15.45
2022-10-09T07:11:37.719Z,15.45
2022-10-09T07:14:07.552Z,15.46
2022-10-09T07:16:40.078Z,15.46
2022-10-09T07:19:11.383Z,15.45
2022-10-09T07:21:44.521Z,15.45
2022-10-09T07:24:12.993Z,15.44
2022-10-09T07:26:43.387Z,15.43
2022-10-09T07:29:13.465Z,15.42
2022-10-09T07:31:40.520Z,15.46
2022-10-09T07:34:08.078Z,15.46
2022-10-09T07:36:35.406Z,15.50
2022-10-09T07:39:03.020Z,15.52
2022-10-09T07:41:30.425Z,15.52
2022-10-09T07:43:58.056Z,15.53
2022-10-09T07:46:30.877Z,15.53
2022-10-09T07:49:00.201Z,15.55
2022-10-09T07:51:29.443Z,15.55
2022-10-09T07:53:57.606Z,15.57
2022-10-09T07:56:32.691Z,15.59
2022-10-09T07:59:02.704Z,15.59
2022-10-09T08:01:30.894Z,15.58
2022-10-09T08:03:59.440Z,15.57
2022-10-09T08:06:27.241Z,15.58
2022-10-09T08:08:56.180Z,15.58
2022-10-09T08:11:25.410Z,15.53
2022-10-09T08:13:53.511Z,15.57
2022-10-09T08:16:22.220Z,15.57
2022-10-09T08:18:49.439Z,15.56
2022-10-09T08:21:19.118Z,15.57
2022-10-09T08:23:46.583Z,15.54
2022-10-09T08:26:19.898Z,15.56
2022-10-09T08:28:51.997Z,15.57
2022-10-09T08:31:19.427Z,15.58
2022-10-09T08:33:46.701Z,15.57
2022-10-09T08:36:15.621Z,15.59
2022-10-09T08:38:47.911Z,15.62
2022-10-09T08:41:41.481Z,15.61
2022-10-09T08:44:19.393Z,15.62
2022-10-09T08:46:55.078Z,15.61
2022-10-09T08:49:48.104Z,15.61
2022-10-09T08:52:49.666Z,15.59
2022-10-09T08:55:29.009Z,15.55
2022-10-09T08:57:57.845Z,15.53
2022-10-09T09:00:29.343Z,15.53
2022-10-09T09:03:24.029Z,15.57
2022-10-09T09:06:17.303Z,15.53
2022-10-09T09:09:01.350Z,15.57
2022-10-09T09:11:38.277Z,15.55
2022-10-09T09:14:29.503Z,15.52
2022-10-09T09:17:05.276Z,15.51
2022-10-09T09:19:32.131Z,15.51
2022-10-09T09:21:59.537Z,15.50
2022-10-09T09:24:54.052Z,15.50
2022-10-09T09:27:26.516Z,15.54
2022-10-09T09:30:13.567Z,15.56
2022-10-09T09:32:44.624Z,15.58
2022-10-09T09:35:37.992Z,15.58
2022-10-09T09:38:04.962Z,15.59
2022-10-09T09:40:37.174Z,15.60
2022-10-09T09:43:22.141Z,15.61
2022-10-09T09:45:52.715Z,15.62
2022-10-09T09:48:27.055Z,15.61
2022-10-09T09:51:16.316Z,15.63
2022-10-09T09:53:44.911Z,15.62
2022-10-09T09:56:12.067Z,15.62
2022-10-09T09:58:46.202Z,15.63
2022-10-09T10:01:28.783Z,15.59
2022-10-09T10:03:59.832Z,15.61
2022-10-09T10:06:42.372Z,15.63
2022-10-09T10:09:18.393Z,15.65
2022-10-09T10:12:07.371Z,15.67
2022-10-09T10:14:35.881Z,15.69
2022-10-09T10:17:04.491Z,15.71
2022-10-09T10:19:42.119Z,15.70
2022-10-09T10:22:28.948Z,15.72
2022-10-09T10:24:59.513Z,15.72
2022-10-09T10:27:34.633Z,15.71
2022-10-09T10:30:05.608Z,15.74
2022-10-09T10:32:48.667Z,15.71
2022-10-09T10:35:19.430Z,15.76
2022-10-09T10:37:58.403Z,15.79
2022-10-09T10:40:33.157Z,15.80
2022-10-09T10:43:32.800Z,15.82
2022-10-09T10:46:22.895Z,15.89
2022-10-09T10:48:52.089Z,15.96
2022-10-09T10:51:44.649Z,16.03
2022-10-09T10:54:33.690Z,16.08
2022-10-09T10:57:22.081Z,16.13
2022-10-09T11:00:10.288Z,16.19
2022-10-09T11:03:37.353Z,16.26
2022-10-09T11:06:26.676Z,16.30
2022-10-09T11:09:18.618Z,16.36
2022-10-09T11:12:00.997Z,16.40
2022-10-09T11:15:03.213Z,16.43
2022-10-09T11:18:06.176Z,16.43
2022-10-09T11:20:45.078Z,16.44
2022-10-09T11:23:50.410Z,16.46
2022-10-09T11:26:50.014Z,16.49
2022-10-09T11:29:46.531Z,16.59
2022-10-09T11:32:16.893Z,16.68
2022-10-09T11:34:53.106Z,16.78
2022-10-09T11:37:25.922Z,16.88
2022-10-09T11:39:53.151Z,16.96
2022-10-09T11:42:24.043Z,17.05
2022-10-09T11:44:53.990Z,17.14
2022-10-09T11:47:30.003Z,17.21
2022-10-09T11:50:15.714Z,17.29
2022-10-09T11:53:12.087Z,17.36
2022-10-09T11:55:39.569Z,17.43
2022-10-09T11:58:19.149Z,17.47
2022-10-09T12:00:48.066Z,17.56
2022-10-09T12:03:35.063Z,17.62
2022-10-09T12:06:15.927Z,17.69
2022-10-09T12:09:02.117Z,17.74
2022-10-09T12:11:30.867Z,17.79
2022-10-09T12:14:04.732Z,17.84
2022-10-09T12:16:34.422Z,17.89
2022-10-09T12:19:05.267Z,17.96
2022-10-09T12:21:46.571Z,17.99
2022-10-09T12:24:22.386Z,18.00
2022-10-09T12:26:51.903Z,18.03
2022-10-09T12:29:28.453Z,18.04
2022-10-09T12:32:00.099Z,18.08
2022-10-09T12:34:36.579Z,18.10
2022-10-09T12:37:16.693Z,18.13
2022-10-09T12:39:45.725Z,18.14
2022-10-09T12:42:23.761Z,18.14
2022-10-09T12:44:54.470Z,18.15
2022-10-09T12:47:27.057Z,18.19
2022-10-09T12:50:03.527Z,18.20
2022-10-09T12:52:32.156Z,18.21
2022-10-09T12:54:59.193Z,18.15
2022-10-09T12:57:28.055Z,18.13
2022-10-09T12:59:56.843Z,18.08
2022-10-09T13:02:24.210Z,18.06
2022-10-09T13:04:57.225Z,18.03
2022-10-09T13:07:27.591Z,18.01
2022-10-09T13:10:02.820Z,18.00
2022-10-09T13:12:32.196Z,17.97
2022-10-09T13:15:06.238Z,17.96
2022-10-09T13:17:39.260Z,18.01
2022-10-09T13:20:12.846Z,18.04
2022-10-09T13:22:41.242Z,18.06
2022-10-09T13:25:10.020Z,18.03
2022-10-09T13:27:41.124Z,18.03
2022-10-09T13:30:09.104Z,18.02
2022-10-09T13:32:37.053Z,18.01
2022-10-09T13:35:04.836Z,17.99
2022-10-09T13:37:32.026Z,17.98
2022-10-09T13:40:02.669Z,18.01
2022-10-09T13:42:37.427Z,17.98
2022-10-09T13:45:08.388Z,18.00
2022-10-09T13:47:36.352Z,18.03
2022-10-09T13:50:04.757Z,18.02
2022-10-09T13:52:32.916Z,18.01
2022-10-09T13:55:00.092Z,18.01
2022-10-09T13:57:27.443Z,18.03
2022-10-09T13:59:55.036Z,18.03
2022-10-09T14:02:22.648Z,18.05
2022-10-09T14:04:50.680Z,18.06
2022-10-09T14:07:20.987Z,18.06
2022-10-09T14:09:50.169Z,18.05
2022-10-09T14:12:18.966Z,18.04
2022-10-09T14:14:51.316Z,18.05
2022-10-09T14:17:18.967Z,18.04
2022-10-09T14:19:47.973Z,18.04
2022-10-09T14:22:16.629Z,18.03
2022-10-09T14:24:44.871Z,18.07
2022-10-09T14:27:12.474Z,18.05
2022-10-09T14:29:40.742Z,18.03
2022-10-09T14:32:10.321Z,18.02
2022-10-09T14:34:38.957Z,18.05
2022-10-09T14:37:23.835Z,18.06
2022-10-09T14:40:02.594Z,18.03
2022-10-09T14:42:30.829Z,18.03
2022-10-09T14:44:58.332Z,18.03
2022-10-09T14:47:25.832Z,18.03
2022-10-09T14:49:53.601Z,18.02
2022-10-09T14:52:21.868Z,18.01
2022-10-09T14:54:50.078Z,18.01
2022-10-09T14:57:18.194Z,17.91
2022-10-09T14:59:46.214Z,17.95
2022-10-09T15:02:16.778Z,17.94
2022-10-09T15:04:45.785Z,17.91
2022-10-09T15:07:17.842Z,17.91
2022-10-09T15:09:51.047Z,17.92
2022-10-09T15:12:22.526Z,17.88
2022-10-09T15:14:52.011Z,17.87
2022-10-09T15:17:21.807Z,17.86
2022-10-09T15:19:55.472Z,17.85
2022-10-09T15:22:29.586Z,17.87
2022-10-09T15:25:02.952Z,17.86
2022-10-09T15:27:30.954Z,17.88
2022-10-09T15:29:58.329Z,17.87
2022-10-09T15:32:26.882Z,17.88
2022-10-09T15:34:54.056Z,17.88
2022-10-09T15:37:22.046Z,17.87
2022-10-09T15:39:52.269Z,17.86
2022-10-09T15:42:20.378Z,17.89
2022-10-09T15:44:50.259Z,17.90
2022-10-09T15:47:39.289Z,17.94
2022-10-09T15:50:11.253Z,17.94
2022-10-09T15:52:40.029Z,17.93
2022-10-09T15:55:13.571Z,17.93
2022-10-09T15:57:43.517Z,18.01
2022-10-09T16:00:17.660Z,18.02
2022-10-09T16:02:47.005Z,18.06
2022-10-09T16:05:17.338Z,18.06
2022-10-09T16:07:44.896Z,18.07
2022-10-09T16:10:12.657Z,18.11
2022-10-09T16:12:41.734Z,18.09
2022-10-09T16:15:09.795Z,18.12
2022-10-09T16:17:37.170Z,18.16
2022-10-09T16:20:05.097Z,18.20
2022-10-09T16:22:33.509Z,18.17
2022-10-09T16:25:04.451Z,18.19
2022-10-09T16:27:32.108Z,18.22
2022-10-09T16:30:01.178Z,18.24
2022-10-09T16:32:31.848Z,18.28
2022-10-09T16:35:00.272Z,18.30
2022-10-09T16:37:35.323Z,18.34
2022-10-09T16:40:03.631Z,18.36
2022-10-09T16:42:31.497Z,18.37
2022-10-09T16:45:03.395Z,18.38
2022-10-09T16:47:30.819Z,18.38
2022-10-09T16:49:59.844Z,18.42
2022-10-09T16:52:29.201Z,18.42
2022-10-09T16:55:00.417Z,18.44
2022-10-09T16:57:31.026Z,18.47
2022-10-09T16:59:59.630Z,18.46
2022-10-09T17:02:29.307Z,18.47
2022-10-09T17:04:59.747Z,18.48
2022-10-09T17:07:34.437Z,18.50
2022-10-09T17:10:10.848Z,18.52
2022-10-09T17:12:41.351Z,18.50
2022-10-09T17:15:09.639Z,18.52
2022-10-09T17:17:40.893Z,18.51
2022-10-09T17:20:11.792Z,18.50
2022-10-09T17:22:40.264Z,18.51
2022-10-09T17:25:08.451Z,18.50
2022-10-09T17:27:35.781Z,18.48
2022-10-09T17:30:03.856Z,18.49
2022-10-09T17:32:32.850Z,18.51
2022-10-09T17:35:00.186Z,18.54
2022-10-09T17:37:28.217Z,18.53
2022-10-09T17:39:58.832Z,18.53
2022-10-09T17:42:27.520Z,18.54
2022-10-09T17:44:57.361Z,18.54
2022-10-09T17:47:25.041Z,18.56
2022-10-09T17:49:52.978Z,18.56
2022-10-09T17:52:20.673Z,18.56
2022-10-09T17:54:48.344Z,18.58
2022-10-09T17:57:15.683Z,18.59
2022-10-09T17:59:44.716Z,18.60
2022-10-09T18:02:12.193Z,18.61
2022-10-09T18:04:40.246Z,18.60
2022-10-09T18:07:08.162Z,18.66
2022-10-09T18:09:37.695Z,18.67
2022-10-09T18:12:05.283Z,18.68
2022-10-09T18:14:34.217Z,18.67
2022-10-09T18:17:04.094Z,18.69
2022-10-09T18:19:31.508Z,18.70
2022-10-09T18:21:59.135Z,18.71
2022-10-09T18:24:27.371Z,18.70
2022-10-09T18:26:56.548Z,18.72
2022-10-09T18:29:24.696Z,18.73
2022-10-09T18:31:56.494Z,18.74
2022-10-09T18:34:25.349Z,18.77
2022-10-09T18:36:53.172Z,18.74
2022-10-09T18:39:22.101Z,18.74
2022-10-09T18:41:49.417Z,18.75
2022-10-09T18:44:22.194Z,18.76
2022-10-09T18:46:56.721Z,18.76
2022-10-09T18:49:30.740Z,18.82
2022-10-09T18:52:02.545Z,18.83
2022-10-09T18:54:31.559Z,18.87
2022-10-09T18:56:59.147Z,18.88
2022-10-09T18:59:26.635Z,18.86
2022-10-09T19:01:55.504Z,18.89
2022-10-09T19:04:23.773Z,18.94
2022-10-09T19:06:52.644Z,18.93
2022-10-09T19:09:24.924Z,18.93
2022-10-09T19:11:53.220Z,18.89
2022-10-09T19:14:21.157Z,18.90
2022-10-09T19:16:49.306Z,18.92
2022-10-09T19:19:16.481Z,18.93
2022-10-09T19:21:44.930Z,18.95
2022-10-09T19:24:14.424Z,18.93
2022-10-09T19:26:41.962Z,18.96
2022-10-09T19:29:10.317Z,18.98
2022-10-09T19:31:40.391Z,18.97
2022-10-09T19:34:09.146Z,18.94
2022-10-09T19:36:38.385Z,18.95
2022-10-09T19:39:15.205Z,18.98
2022-10-09T19:41:45.671Z,18.99
2022-10-09T19:44:13.327Z,19.00
2022-10-09T19:46:40.849Z,18.99
2022-10-09T19:49:08.603Z,19.01
2022-10-09T19:51:37.703Z,19.01
2022-10-09T19:54:07.739Z,18.99
2022-10-09T19:56:36.259Z,18.95
2022-10-09T19:59:05.809Z,18.88
2022-10-09T20:01:37.941Z,18.88
2022-10-09T20:04:10.848Z,18.85
2022-10-09T20:06:40.324Z,18.81
2022-10-09T20:09:08.889Z,18.77
2022-10-09T20:11:37.404Z,18.75
2022-10-09T20:14:05.508Z,18.78
2022-10-09T20:16:34.183Z,18.74
2022-10-09T20:19:02.631Z,18.70
2022-10-09T20:21:37.667Z,18.66
2022-10-09T20:24:08.682Z,18.66
2022-10-09T20:26:38.672Z,18.63
2022-10-09T20:29:08.421Z,18.60
2022-10-09T20:31:36.838Z,18.59
2022-10-09T20:34:04.244Z,18.59
2022-10-09T20:36:39.369Z,18.59
2022-10-09T20:39:10.130Z,18.54
2022-10-09T20:41:43.188Z,18.38
2022-10-09T20:44:13.619Z,18.28
2022-10-09T20:46:42.146Z,18.17
2022-10-09T20:49:13.960Z,18.09
2022-10-09T20:51:42.866Z,18.02
2022-10-09T20:54:20.689Z,17.95
2022-10-09T20:56:49.533Z,17.90
2022-10-09T20:59:18.602Z,17.87
2022-10-09T21:01:47.117Z,17.79
2022-10-09T21:04:15.189Z,17.76
2022-10-09T21:06:42.881Z,17.70
2022-10-09T21:09:10.062Z,17.64
2022-10-09T21:11:37.577Z,17.62
2022-10-09T21:14:04.966Z,17.58
2022-10-09T21:16:32.424Z,17.52
2022-10-09T21:19:05.134Z,17.52
2022-10-09T21:21:32.954Z,17.48
2022-10-09T21:24:01.635Z,17.43
2022-10-09T21:26:36.212Z,17.38
2022-10-09T21:29:05.693Z,17.36
2022-10-09T21:31:33.889Z,17.33
2022-10-09T21:34:02.076Z,17.30
2022-10-09T21:36:29.346Z,17.27
2022-10-09T21:38:56.563Z,17.24
2022-10-09T21:41:24.125Z,17.21
2022-10-09T21:43:51.151Z,17.18
2022-10-09T21:46:18.119Z,17.17
2022-10-09T21:48:45.620Z,17.13
2022-10-09T21:51:12.554Z,17.12
2022-10-09T21:53:40.788Z,17.07
2022-10-09T21:56:10.200Z,17.07
2022-10-09T21:58:39.120Z,17.03
2022-10-09T22:01:06.714Z,17.01
2022-10-09T22:03:35.581Z,17.00
2022-10-09T22:06:08.233Z,16.96
2022-10-09T22:08:35.998Z,16.94
2022-10-09T22:11:07.568Z,16.94
2022-10-09T22:13:35.229Z,16.89
2022-10-09T22:16:06.879Z,16.88
2022-10-09T22:18:34.258Z,16.85
2022-10-09T22:21:07.854Z,16.82
2022-10-09T22:23:35.392Z,16.79
2022-10-09T22:26:07.103Z,16.78
2022-10-09T22:28:34.928Z,16.74
2022-10-09T22:31:04.996Z,16.73
2022-10-09T22:33:32.292Z,16.74
2022-10-09T22:36:14.508Z,16.68
2022-10-09T22:38:42.421Z,16.67
2022-10-09T22:41:10.842Z,16.67
2022-10-09T22:43:39.415Z,16.64
2022-10-09T22:46:12.231Z,16.64
2022-10-09T22:48:40.294Z,16.62
2022-10-09T22:51:09.470Z,16.59
2022-10-09T22:53:37.353Z,16.59
2022-10-09T22:56:09.404Z,16.57
2022-10-09T22:58:36.345Z,16.57
2022-10-09T23:01:06.667Z,16.55
2022-10-09T23:03:33.822Z,16.51
2022-10-09T23:06:12.203Z,16.50
2022-10-09T23:08:41.231Z,16.48
2022-10-09T23:11:09.140Z,16.44
2022-10-09T23:13:37.018Z,16.48
2022-10-09T23:16:07.486Z,16.46
2022-10-09T23:18:35.501Z,16.43
2022-10-09T23:21:04.388Z,16.41
2022-10-09T23:23:31.738Z,16.38
2022-10-09T23:25:58.636Z,16.38
2022-10-09T23:28:27.942Z,16.36
2022-10-09T23:31:01.952Z,16.34
2022-10-09T23:33:28.925Z,16.34
2022-10-09T23:35:55.951Z,16.32
2022-10-09T23:38:23.036Z,16.33
2022-10-09T23:41:01.296Z,16.30
2022-10-09T23:43:30.092Z,16.29
2022-10-09T23:46:00.308Z,16.28
2022-10-09T23:48:28.165Z,16.26
2022-10-09T23:50:56.829Z,16.26
2022-10-09T23:53:26.191Z,16.22
2022-10-09T23:55:54.099Z,16.22
2022-10-09T23:58:21.779Z,16.23
